logo
Rechercher aéroport 
image banner adimage banner adimage banner ad
image banner ad

2CA3 - Crosswinds

Situé à Twentynine Palms, United States

ICAO - 2CA3, IATA -

Données fournies par Airmate  

Information générale

Coordonnées: N34°9'36" W115°59'51"
Élévation : 1835 feet MSL.
Variation magnétique : 14° East
Voir autres Aéroports à California

Données opérationnelles

Special qualification required
Heure actuelle UTC:
Heure actuelle locale:
Météo à : KNXP - Twentynine Palms Self ( 21 km )
METAR: KNXP 261456Z AUTO 33004KT 9SM CLR 23/01 A3007 RMK AO2 SLP147 T02280006 53012 $
TAF: TAF KNXP 2615/2715 VRB03KT 9999 SKC QNH2999INS BECMG 2621/2623 08008KT 9999 VCTS SCT050CB QNH3002INS BECMG 2701/2703 VRB05KT 9999 NSW SKC QNH3003INS T37/2622Z T23/2712Z
Voir NOTAMs / SUP AIP / TFR affectant cet aéroport [VIEW]
Fréquences de communication: [VIEW]

Pistes:

Identifiant RWYQFULongueur (ft)Largeur (ft)SurfaceLDA (ft)
092600200EARTH
272600200EARTH
181400200EARTH
361400200EARTH

Coordonnées de l'aéroport

Adresse: Twentynine Palms United States

Vue satellite de 2CA3